createdAt,value
2022-11-07T00:01:24.628Z,4.73
2022-11-07T00:06:16.364Z,4.60
2022-11-07T00:11:08.190Z,4.73
2022-11-07T00:16:02.030Z,4.93
2022-11-07T00:20:53.973Z,4.70
2022-11-07T00:25:45.674Z,4.90
2022-11-07T00:30:37.411Z,5.40
2022-11-07T00:35:29.190Z,4.93
2022-11-07T00:40:21.061Z,5.33
2022-11-07T00:45:13.299Z,5.87
2022-11-07T00:50:06.395Z,5.57
2022-11-07T00:54:58.114Z,5.27
2022-11-07T00:59:49.771Z,5.13
2022-11-07T01:05:00.050Z,5.43
2022-11-07T01:09:51.707Z,5.37
2022-11-07T01:14:43.377Z,4.70
2022-11-07T01:19:35.102Z,5.03
2022-11-07T01:24:26.834Z,4.50
2022-11-07T01:29:19.676Z,4.43
2022-11-07T01:34:11.379Z,4.30
2022-11-07T01:39:04.693Z,4.00
2022-11-07T01:44:08.454Z,4.03
2022-11-07T01:49:22.901Z,3.50
2022-11-07T01:54:19.007Z,3.80
2022-11-07T01:59:18.274Z,3.70
2022-11-07T02:04:12.098Z,3.47
2022-11-07T02:09:04.538Z,3.20
2022-11-07T02:13:56.195Z,3.90
2022-11-07T02:18:48.137Z,3.30
2022-11-07T02:24:00.599Z,3.57
2022-11-07T02:28:55.184Z,3.23
2022-11-07T02:33:46.862Z,3.43
2022-11-07T02:38:38.647Z,3.07
2022-11-07T02:43:32.499Z,2.70
2022-11-07T02:48:39.405Z,2.93
2022-11-07T02:53:31.081Z,2.57
2022-11-07T02:58:22.746Z,2.37
2022-11-07T03:03:15.115Z,2.37
2022-11-07T03:08:07.051Z,2.40
2022-11-07T03:12:58.699Z,2.53
2022-11-07T03:17:50.360Z,2.00
2022-11-07T03:22:42.041Z,2.40
2022-11-07T03:27:33.901Z,2.20
2022-11-07T03:32:25.586Z,2.20
2022-11-07T03:37:17.593Z,1.90
2022-11-07T03:42:09.263Z,2.10
2022-11-07T03:47:00.927Z,1.93
2022-11-07T03:51:52.582Z,1.80
2022-11-07T03:56:44.275Z,2.17
2022-11-07T04:01:36.036Z,2.07
2022-11-07T04:06:27.779Z,2.20
2022-11-07T04:11:37.846Z,2.10
2022-11-07T04:16:48.242Z,2.00
2022-11-07T04:21:39.891Z,1.93
2022-11-07T04:26:50.002Z,1.83
2022-11-07T04:31:41.665Z,2.03
2022-11-07T04:36:33.448Z,1.90
2022-11-07T04:41:25.197Z,3.00
2022-11-07T04:46:17.145Z,2.10
2022-11-07T04:51:20.240Z,2.20
2022-11-07T04:56:11.928Z,2.30
2022-11-07T08:18:17.636Z,4.20
